Time;durP1;ratioP1;P1;durP2;ratioP2;P2;SDS_P1;SDS_P2;PMS_P1;PMS_P2;Temp;Humidity;BMP_temperature;BMP_pressure;BME280_temperature;BME280_humidity;BME280_pressure;Samples;Min_cycle;Max_cycle;Signal;HPM_P1;HPM_P2
2023/05/14 00:01:36;;;;;;;20.10;14.20;;;;;;;5.60;66.54;97648.09;108650;1250;96399;-79
2023/05/14 00:04:04;;;;;;;26.40;13.40;;;;;;;5.61;66.65;97650.20;108865;1250;103274;-75
2023/05/14 00:06:38;;;;;;;23.90;13.10;;;;;;;5.62;66.69;97649.87;108499;1250;102398;-74
2023/05/14 00:09:12;;;;;;;20.50;12.90;;;;;;;5.61;66.72;97647.16;108863;1250;100192;-74
2023/05/14 00:11:43;;;;;;;23.90;13.00;;;;;;;5.59;66.69;97647.17;108581;1250;95777;-76
2023/05/14 00:14:11;;;;;;;22.70;13.30;;;;;;;5.56;66.74;97652.48;108880;1250;96078;-74
2023/05/14 00:16:39;;;;;;;22.70;13.80;;;;;;;5.54;66.93;97650.77;108583;1250;103367;-76
2023/05/14 00:19:07;;;;;;;22.60;14.80;;;;;;;5.52;66.96;97648.02;108912;1250;101290;-74
2023/05/14 00:21:36;;;;;;;23.10;13.20;;;;;;;5.49;66.94;97645.06;108737;1250;99190;-74
2023/05/14 00:24:05;;;;;;;18.70;13.10;;;;;;;5.42;66.95;97640.10;108872;1250;95550;-72
2023/05/14 00:26:36;;;;;;;19.70;13.00;;;;;;;5.33;66.98;97640.27;108600;1250;97137;-74
2023/05/14 00:29:05;;;;;;;23.90;14.30;;;;;;;5.29;67.23;97641.51;108874;1250;102878;-73
2023/05/14 00:31:36;;;;;;;19.30;14.30;;;;;;;5.31;67.35;97641.58;108791;1250;100273;-74
2023/05/14 00:34:13;;;;;;;22.00;13.20;;;;;;;5.34;67.45;97644.84;108642;1250;98970;-76
2023/05/14 00:36:53;;;;;;;16.40;11.30;;;;;;;5.33;67.38;97642.80;108542;1250;95564;-74
2023/05/14 00:39:21;;;;;;;16.60;11.10;;;;;;;5.25;67.20;97644.55;108889;1250;96155;-74
2023/05/14 00:41:49;;;;;;;13.80;10.40;;;;;;;5.20;67.18;97645.70;108860;1250;103644;-75
2023/05/14 00:44:17;;;;;;;16.40;11.40;;;;;;;5.18;67.25;97648.46;108883;1250;101844;-73
2023/05/14 00:46:46;;;;;;;19.00;11.40;;;;;;;5.14;67.26;97649.44;108883;1250;100020;-74
2023/05/14 00:49:15;;;;;;;17.80;11.70;;;;;;;5.11;67.37;97647.60;108853;1250;95593;-76
2023/05/14 00:51:45;;;;;;;26.80;12.80;;;;;;;5.12;67.45;97649.50;108906;1250;96025;-74
2023/05/14 00:54:19;;;;;;;17.90;11.10;;;;;;;5.13;67.56;97653.98;108867;1250;102333;-73
2023/05/14 00:56:48;;;;;;;19.20;12.30;;;;;;;5.14;67.52;97654.02;108886;1250;101483;-74
2023/05/14 00:59:16;;;;;;;18.20;12.20;;;;;;;5.13;67.55;97659.90;108826;1250;99698;-74
2023/05/14 01:01:44;;;;;;;20.80;12.70;;;;;;;5.11;67.67;97660.83;108874;1250;95582;-74
2023/05/14 01:04:13;;;;;;;20.80;13.10;;;;;;;5.08;67.63;97656.20;108873;1250;95954;-74
2023/05/14 01:07:11;;;;;;;20.20;12.60;;;;;;;5.07;67.67;97650.89;108880;1250;103764;-76
2023/05/14 01:09:39;;;;;;;15.60;10.70;;;;;;;5.05;67.67;97652.61;108834;1250;101759;-74
2023/05/14 01:12:17;;;;;;;14.50;11.80;;;;;;;5.01;67.72;97651.06;108874;1250;98977;-74
2023/05/14 01:14:54;;;;;;;16.20;11.20;;;;;;;4.98;67.86;97648.70;108834;1250;95524;-73
2023/05/14 01:17:24;;;;;;;15.10;11.30;;;;;;;4.95;67.91;97648.14;108883;1250;96080;-75
2023/05/14 01:19:53;;;;;;;17.50;11.90;;;;;;;4.93;67.99;97645.71;108835;1252;103634;-76
2023/05/14 01:22:21;;;;;;;15.90;11.60;;;;;;;4.92;67.93;97649.66;108896;1250;101355;-74
2023/05/14 01:24:49;;;;;;;13.40;10.50;;;;;;;4.85;67.86;97650.36;108859;1250;100334;-77
2023/05/14 01:27:26;;;;;;;14.40;10.40;;;;;;;4.75;67.80;97650.44;108886;1250;95863;-74
2023/05/14 01:30:24;;;;;;;14.20;10.10;;;;;;;4.67;67.89;97654.30;108819;1250;95971;-73
2023/05/14 01:32:56;;;;;;;17.70;13.10;;;;;;;4.65;67.91;97656.87;108848;1250;103700;-74
2023/05/14 01:35:28;;;;;;;16.50;11.10;;;;;;;4.63;68.06;97657.23;108886;1250;101356;-74
2023/05/14 01:37:59;;;;;;;12.90;10.10;;;;;;;4.57;68.15;97655.41;108644;1250;99791;-74
2023/05/14 01:40:27;;;;;;;16.50;10.80;;;;;;;4.55;68.13;97655.11;108867;1250;95531;-75
2023/05/14 01:42:56;;;;;;;15.40;10.10;;;;;;;4.53;68.11;97653.67;108904;1253;96053;-74
2023/05/14 01:45:24;;;;;;;14.30;10.60;;;;;;;4.49;68.14;97656.86;108871;1250;103418;-74
2023/05/14 01:47:53;;;;;;;14.20;10.40;;;;;;;4.45;68.20;97655.00;108862;1250;101416;-73
2023/05/14 01:50:21;;;;;;;13.40;11.40;;;;;;;4.40;68.39;97652.83;108874;1250;99567;-74
2023/05/14 01:52:52;;;;;;;16.00;10.90;;;;;;;4.35;68.43;97657.50;108863;1251;95917;-73
2023/05/14 01:55:20;;;;;;;14.90;11.30;;;;;;;4.32;68.63;97653.17;108877;1250;96030;-77
2023/05/14 01:57:48;;;;;;;17.90;13.20;;;;;;;4.31;68.64;97649.75;108907;1250;103670;-77
2023/05/14 02:00:16;;;;;;;17.20;12.90;;;;;;;4.30;68.64;97648.38;108630;1250;100345;-74
2023/05/14 02:02:44;;;;;;;17.10;13.30;;;;;;;4.29;68.74;97644.94;108647;1251;101027;-74
2023/05/14 02:05:13;;;;;;;17.00;12.30;;;;;;;4.28;68.79;97636.02;108855;1250;95811;-75
2023/05/14 02:07:41;;;;;;;13.60;11.10;;;;;;;4.26;68.77;97635.08;108856;1250;96458;-76
2023/05/14 02:10:10;;;;;;;14.80;11.60;;;;;;;4.24;68.70;97629.83;108866;1250;103539;-73
2023/05/14 02:12:38;;;;;;;15.20;11.00;;;;;;;4.22;68.71;97628.77;108918;1250;101195;-76
2023/05/14 02:15:07;;;;;;;16.70;12.10;;;;;;;4.20;68.79;97625.27;108821;1250;100062;-74
2023/05/14 02:17:35;;;;;;;17.60;11.80;;;;;;;4.18;68.89;97621.76;108399;1250;95734;-76
2023/05/14 02:20:04;;;;;;;15.60;11.00;;;;;;;4.18;68.92;97623.52;108834;1250;95966;-75
2023/05/14 02:22:32;;;;;;;14.70;9.60;;;;;;;4.16;68.82;97615.23;108813;1250;102257;-74
2023/05/14 02:25:00;;;;;;;15.20;10.00;;;;;;;4.14;68.82;97611.32;108841;1250;101514;-74
2023/05/14 02:27:28;;;;;;;15.30;9.80;;;;;;;4.10;68.75;97608.91;108841;1250;99981;-79
2023/05/14 02:29:59;;;;;;;13.40;9.60;;;;;;;4.05;68.71;97601.45;108823;1250;95549;-75
2023/05/14 02:32:28;;;;;;;14.50;10.00;;;;;;;4.02;68.81;97595.05;108890;1250;95953;-74
2023/05/14 02:34:56;;;;;;;14.60;9.70;;;;;;;3.99;68.96;97590.50;108881;1250;103335;-74
2023/05/14 02:37:24;;;;;;;14.60;10.60;;;;;;;3.98;69.07;97589.91;108900;1250;101818;-75
2023/05/14 02:39:52;;;;;;;16.80;10.80;;;;;;;3.98;69.18;97591.31;108562;1250;99831;-74
2023/05/14 02:42:20;;;;;;;12.80;10.00;;;;;;;3.98;69.25;97586.71;108870;1250;95925;-77
2023/05/14 02:44:48;;;;;;;12.60;9.30;;;;;;;3.90;69.11;97577.42;108619;1250;95982;-76
2023/05/14 02:47:17;;;;;;;13.70;9.80;;;;;;;3.82;69.25;97581.15;108895;1250;103771;-73
2023/05/14 02:49:45;;;;;;;17.30;9.80;;;;;;;3.78;69.31;97591.05;108928;1250;101459;-77
2023/05/14 02:52:13;;;;;;;11.60;9.80;;;;;;;3.74;69.49;97598.07;108847;1250;100005;-79
2023/05/14 02:54:41;;;;;;;14.60;9.90;;;;;;;3.72;69.56;97598.49;108718;1250;95640;-76
2023/05/14 02:57:09;;;;;;;12.30;9.10;;;;;;;3.74;69.59;97603.93;108897;1250;96385;-78
2023/05/14 02:59:37;;;;;;;14.00;10.00;;;;;;;3.74;69.59;97605.58;108896;1249;103439;-73
2023/05/14 03:02:05;;;;;;;14.60;9.40;;;;;;;3.72;69.54;97607.17;108899;1250;101437;-74
2023/05/14 03:04:33;;;;;;;12.70;9.60;;;;;;;3.71;69.56;97614.58;108846;1250;99825;-74
2023/05/14 03:07:02;;;;;;;10.60;8.80;;;;;;;3.70;69.51;97616.94;108425;1250;95655;-74
2023/05/14 03:09:30;;;;;;;12.90;8.90;;;;;;;3.67;69.68;97618.19;108855;1250;95999;-74
2023/05/14 03:11:58;;;;;;;13.00;9.60;;;;;;;3.64;69.73;97616.55;108538;1250;103861;-74
2023/05/14 03:14:26;;;;;;;12.40;9.30;;;;;;;3.63;69.84;97615.91;108874;1250;100437;-74
2023/05/14 03:16:55;;;;;;;14.10;9.30;;;;;;;3.62;69.96;97616.35;108842;1250;99365;-75
2023/05/14 03:19:23;;;;;;;14.20;9.90;;;;;;;3.58;70.09;97615.01;108832;1250;95553;-74
2023/05/14 03:21:51;;;;;;;13.50;9.40;;;;;;;3.57;70.26;97615.20;108882;1250;96007;-77
2023/05/14 03:24:19;;;;;;;14.20;8.90;;;;;;;3.54;70.53;97612.08;108890;1250;103580;-74
2023/05/14 03:26:47;;;;;;;15.30;9.80;;;;;;;3.50;70.73;97601.54;108914;1250;101560;-78
2023/05/14 03:29:16;;;;;;;14.20;9.60;;;;;;;3.47;70.99;97598.23;108801;1250;99989;-77
2023/05/14 03:31:45;;;;;;;11.40;8.90;;;;;;;3.46;71.23;97595.76;108654;1250;95780;-74
2023/05/14 03:34:13;;;;;;;14.70;9.90;;;;;;;3.44;71.46;97596.27;108912;1250;96600;-75
2023/05/14 03:36:41;;;;;;;13.40;9.90;;;;;;;3.47;71.51;97601.87;108880;1250;102597;-77
2023/05/14 03:39:09;;;;;;;14.40;9.80;;;;;;;3.52;71.59;97605.23;108669;1250;101460;-76
2023/05/14 03:41:38;;;;;;;14.00;10.40;;;;;;;3.55;71.65;97605.08;108523;1250;100189;-78
2023/05/14 03:44:06;;;;;;;12.10;9.40;;;;;;;3.60;71.75;97602.73;108746;1250;95561;-74
2023/05/14 03:46:34;;;;;;;14.60;9.40;;;;;;;3.68;71.47;97607.76;108918;1251;96078;-74
2023/05/14 03:49:02;;;;;;;14.50;9.80;;;;;;;3.74;71.61;97607.40;108903;1250;103485;-76
2023/05/14 03:51:31;;;;;;;12.70;9.90;;;;;;;3.80;71.54;97604.11;108858;1250;101456;-74
2023/05/14 03:53:59;;;;;;;13.70;9.30;;;;;;;3.84;71.43;97602.69;108661;1250;100014;-74
2023/05/14 03:56:27;;;;;;;14.70;9.90;;;;;;;3.87;71.44;97599.30;108865;1250;95513;-74
2023/05/14 03:58:55;;;;;;;14.70;9.60;;;;;;;3.90;71.46;97599.81;108847;1250;95699;-74
2023/05/14 04:01:23;;;;;;;13.80;10.10;;;;;;;3.94;71.42;97601.94;108931;1250;103596;-74
2023/05/14 04:03:51;;;;;;;15.50;9.90;;;;;;;3.97;71.42;97603.74;108792;1250;100404;-75
2023/05/14 04:06:19;;;;;;;14.70;10.00;;;;;;;4.00;71.46;97599.66;108842;1251;99577;-72
2023/05/14 04:08:47;;;;;;;14.60;10.30;;;;;;;4.04;71.42;97594.85;108634;1250;95594;-74
2023/05/14 04:11:15;;;;;;;13.20;9.30;;;;;;;4.07;71.52;97591.27;108639;1250;96614;-75
2023/05/14 04:13:43;;;;;;;11.70;8.20;;;;;;;4.10;71.60;97588.05;108617;1250;103619;-73
2023/05/14 04:16:12;;;;;;;14.70;8.50;;;;;;;4.14;71.61;97588.31;108879;1250;101241;-74
2023/05/14 04:18:40;;;;;;;12.60;9.10;;;;;;;4.18;71.65;97593.02;108898;1250;108446;-76
2023/05/14 04:21:08;;;;;;;11.70;9.30;;;;;;;4.24;71.77;97592.06;108893;1250;95542;-77
2023/05/14 04:23:36;;;;;;;13.90;9.30;;;;;;;4.29;71.71;97592.89;108890;1250;97060;-74
2023/05/14 04:26:05;;;;;;;11.70;9.10;;;;;;;4.35;71.70;97596.01;108872;1250;103401;-74
2023/05/14 04:28:33;;;;;;;13.80;9.00;;;;;;;4.41;71.75;97594.46;108720;1250;102535;-74
2023/05/14 04:31:01;;;;;;;14.70;9.90;;;;;;;4.47;71.78;97589.74;108605;1250;99869;-75
2023/05/14 04:33:29;;;;;;;15.60;10.70;;;;;;;4.53;71.78;97589.27;108842;1250;95769;-74
2023/05/14 04:35:57;;;;;;;15.20;10.70;;;;;;;4.57;71.76;97586.30;108899;1250;96028;-79
2023/05/14 04:38:25;;;;;;;13.10;10.10;;;;;;;4.62;71.77;97586.38;108879;1250;103716;-75
2023/05/14 04:40:53;;;;;;;14.80;10.10;;;;;;;4.67;71.86;97587.95;108880;1250;101522;-74
2023/05/14 04:43:21;;;;;;;12.10;9.40;;;;;;;4.73;71.96;97589.30;108860;1250;99650;-79
2023/05/14 04:45:50;;;;;;;12.20;8.50;;;;;;;4.79;72.09;97587.25;108882;1250;95636;-74
2023/05/14 04:48:18;;;;;;;13.60;8.60;;;;;;;4.85;72.21;97583.20;108858;1250;96009;-78
2023/05/14 04:50:47;;;;;;;16.00;10.80;;;;;;;4.90;72.35;97586.29;108928;1250;102553;-74
2023/05/14 04:53:15;;;;;;;14.60;8.70;;;;;;;4.97;72.34;97583.23;108914;1250;101448;-74
2023/05/14 04:55:43;;;;;;;11.10;8.10;;;;;;;5.04;72.29;97584.75;108893;1250;100011;-74
2023/05/14 04:58:11;;;;;;;15.70;11.20;;;;;;;5.12;72.29;97585.99;108871;1250;95798;-74
2023/05/14 05:00:40;;;;;;;38.30;27.80;;;;;;;5.19;72.35;97585.49;108883;1250;96006;-75
2023/05/14 05:03:08;;;;;;;65.10;48.10;;;;;;;5.27;72.28;97584.67;108924;1250;103748;-74
2023/05/14 05:05:36;;;;;;;39.80;29.50;;;;;;;5.35;72.47;97589.44;108893;1250;101422;-78
2023/05/14 05:08:04;;;;;;;28.70;21.30;;;;;;;5.43;72.55;97581.73;108659;1250;100095;-75
2023/05/14 05:10:33;;;;;;;25.40;18.20;;;;;;;5.54;72.74;97576.56;108875;1250;95849;-74
2023/05/14 05:13:01;;;;;;;21.90;17.20;;;;;;;5.64;72.84;97576.81;108916;1252;96028;-75
2023/05/14 05:15:29;;;;;;;20.00;14.90;;;;;;;5.73;72.77;97576.96;108548;1251;103621;-74
2023/05/14 05:17:57;;;;;;;16.80;12.30;;;;;;;5.84;72.76;97574.68;108929;1250;101347;-77
2023/05/14 05:20:27;;;;;;;12.90;10.60;;;;;;;5.93;72.83;97571.79;108832;1250;99829;-74
2023/05/14 05:22:55;;;;;;;11.50;9.70;;;;;;;6.03;72.83;97564.89;108483;1251;95629;-73
2023/05/14 05:25:23;;;;;;;12.20;8.90;;;;;;;6.14;72.90;97565.29;108885;1250;96062;-72
2023/05/14 05:27:51;;;;;;;9.00;6.90;;;;;;;6.24;72.81;97568.63;108795;1250;103519;-73
2023/05/14 05:30:19;;;;;;;7.60;6.70;;;;;;;6.34;72.70;97566.91;108932;1250;101633;-78
2023/05/14 05:32:47;;;;;;;10.10;7.00;;;;;;;6.44;72.77;97567.27;108865;1250;99925;-77
2023/05/14 05:35:15;;;;;;;8.00;7.20;;;;;;;6.56;72.65;97568.91;108886;1250;95517;-74
2023/05/14 05:37:44;;;;;;;8.80;6.90;;;;;;;6.67;72.63;97561.13;108916;1250;96344;-74
2023/05/14 05:40:13;;;;;;;8.80;7.50;;;;;;;6.79;72.87;97556.73;108884;1250;103462;-75
2023/05/14 05:42:41;;;;;;;8.90;7.10;;;;;;;6.92;72.90;97557.33;108906;1250;101475;-76
2023/05/14 05:45:10;;;;;;;9.40;6.90;;;;;;;7.05;72.67;97551.35;108934;1250;99873;-74
2023/05/14 05:47:38;;;;;;;9.60;7.50;;;;;;;7.19;72.44;97549.61;108935;1251;95655;-74
2023/05/14 05:50:07;;;;;;;9.50;6.90;;;;;;;7.31;72.19;97540.80;108874;1250;95931;-73
2023/05/14 05:52:35;;;;;;;10.50;7.60;;;;;;;7.42;72.23;97532.55;108947;1250;102267;-78
2023/05/14 05:55:04;;;;;;;7.90;6.70;;;;;;;7.55;72.24;97530.08;108955;1250;101326;-77
2023/05/14 05:57:32;;;;;;;8.10;6.70;;;;;;;7.68;72.14;97526.04;108805;1250;99864;-74
2023/05/14 06:00:03;;;;;;;8.00;6.70;;;;;;;7.82;72.05;97525.19;108848;1250;95557;-74
2023/05/14 06:02:31;;;;;;;9.20;7.00;;;;;;;7.95;72.08;97525.81;108871;1250;95581;-75
2023/05/14 06:05:00;;;;;;;8.70;7.20;;;;;;;8.08;72.13;97523.08;108659;1250;103524;-77
2023/05/14 06:07:28;;;;;;;9.30;6.50;;;;;;;8.22;71.95;97516.22;108900;1250;110285;-73
2023/05/14 06:09:56;;;;;;;9.70;7.20;;;;;;;8.34;71.67;97513.06;108869;1250;99981;-79
2023/05/14 06:12:24;;;;;;;9.60;7.00;;;;;;;8.48;71.43;97508.52;108854;1250;95591;-75
2023/05/14 06:14:56;;;;;;;6.80;5.60;;;;;;;8.63;71.43;97507.55;108907;1250;96433;-75
2023/05/14 06:17:25;;;;;;;8.70;6.10;;;;;;;8.77;71.30;97505.52;108899;1250;103168;-74
2023/05/14 06:19:53;;;;;;;11.90;7.00;;;;;;;8.90;70.85;97503.38;108906;1250;101512;-75
2023/05/14 06:22:21;;;;;;;9.00;6.40;;;;;;;9.04;70.35;97500.63;108922;1250;99758;-75
2023/05/14 06:24:49;;;;;;;7.70;5.80;;;;;;;9.15;70.16;97497.63;108916;1250;95797;-74
2023/05/14 06:27:17;;;;;;;7.90;6.30;;;;;;;9.30;70.16;97503.08;108911;1250;95932;-75
2023/05/14 06:29:46;;;;;;;7.50;5.60;;;;;;;9.45;70.09;97502.47;108880;1250;103832;-79
2023/05/14 06:32:14;;;;;;;7.60;6.20;;;;;;;9.61;69.74;97499.70;108901;1250;101388;-75
2023/05/14 06:34:43;;;;;;;9.20;6.30;;;;;;;9.76;69.33;97494.27;108496;1250;99844;-75
2023/05/14 06:37:11;;;;;;;8.80;6.50;;;;;;;9.89;68.93;97489.65;108722;1250;95631;-75
2023/05/14 06:39:43;;;;;;;9.10;6.20;;;;;;;10.01;68.70;97486.77;108788;1250;96437;-78
2023/05/14 06:42:11;;;;;;;7.40;5.50;;;;;;;10.14;68.43;97485.20;108906;1250;103740;-78
2023/05/14 06:44:39;;;;;;;10.00;6.10;;;;;;;10.26;68.16;97483.94;108920;1250;101620;-75
2023/05/14 06:47:07;;;;;;;9.70;5.30;;;;;;;10.39;68.08;97480.21;108901;1250;99795;-74
2023/05/14 06:49:36;;;;;;;7.00;5.40;;;;;;;10.54;68.15;97478.63;108857;1250;95552;-74
2023/05/14 06:52:05;;;;;;;7.40;5.40;;;;;;;10.71;67.98;97476.11;108859;1250;97225;-75
2023/05/14 06:54:33;;;;;;;8.40;5.30;;;;;;;10.86;67.79;97475.12;108900;1250;103323;-74
2023/05/14 06:57:01;;;;;;;7.00;5.20;;;;;;;10.99;67.37;97476.70;108896;1249;101334;-76
2023/05/14 06:59:29;;;;;;;7.50;4.70;;;;;;;11.11;67.19;97478.91;108807;1250;100004;-76
2023/05/14 07:01:58;;;;;;;7.30;5.10;;;;;;;11.27;66.95;97479.83;108774;1251;96027;-74
2023/05/14 07:04:26;;;;;;;5.80;5.00;;;;;;;11.42;66.94;97482.76;108573;1252;96051;-76
2023/05/14 07:06:54;;;;;;;7.50;4.80;;;;;;;11.55;66.26;97476.13;108809;1250;102203;-80
2023/05/14 07:09:22;;;;;;;6.70;4.60;;;;;;;11.67;66.00;97472.77;108816;1250;99964;-74
2023/05/14 07:11:51;;;;;;;4.70;4.20;;;;;;;11.83;66.15;97469.98;108894;1250;99821;-76
2023/05/14 07:14:19;;;;;;;5.00;4.20;;;;;;;12.00;65.74;97469.48;108784;1255;95642;-77
2023/05/14 07:16:47;;;;;;;8.30;4.30;;;;;;;12.14;65.22;97468.21;108763;1251;96980;-78
2023/05/14 07:19:15;;;;;;;7.50;4.80;;;;;;;12.26;64.84;97466.61;108780;1250;103844;-78
2023/05/14 07:21:43;;;;;;;7.60;5.20;;;;;;;12.42;64.55;97465.65;108799;1251;101309;-78
2023/05/14 07:24:11;;;;;;;9.50;5.00;;;;;;;12.57;64.60;97462.39;108718;1251;99875;-76
2023/05/14 07:26:39;;;;;;;5.10;4.10;;;;;;;12.73;63.89;97457.44;108772;1251;95608;-74
2023/05/14 07:29:07;;;;;;;7.30;4.30;;;;;;;12.88;63.38;97452.49;108766;1251;96026;-73
2023/05/14 07:31:35;;;;;;;11.40;6.10;;;;;;;13.05;63.11;97449.64;108812;1253;103474;-74
2023/05/14 07:34:03;;;;;;;8.90;5.30;;;;;;;13.32;63.24;97447.11;108774;1251;101356;-75
2023/05/14 07:36:32;;;;;;;7.20;4.70;;;;;;;13.68;62.97;97445.61;108755;1251;98556;-75
2023/05/14 07:39:00;;;;;;;10.70;3.90;;;;;;;14.14;62.55;97442.51;108791;1251;95524;-75
2023/05/14 07:41:28;;;;;;;6.60;3.50;;;;;;;14.67;61.68;97434.29;108758;1257;96423;-75
2023/05/14 07:43:56;;;;;;;5.60;2.80;;;;;;;15.16;60.77;97432.52;108557;1251;103544;-76
2023/05/14 07:46:24;;;;;;;4.90;2.80;;;;;;;15.65;59.97;97434.19;108828;1250;101472;-79
2023/05/14 07:48:52;;;;;;;3.50;2.10;;;;;;;16.12;59.00;97429.30;108352;1251;100253;-75
2023/05/14 07:51:21;;;;;;;4.70;2.10;;;;;;;16.58;57.88;97426.64;108765;1250;95663;-75
2023/05/14 07:53:50;;;;;;;1.90;1.80;;;;;;;17.01;57.22;97420.59;108675;1250;95876;-76
2023/05/14 07:56:18;;;;;;;4.00;2.00;;;;;;;17.41;56.41;97418.06;108861;1251;103473;-75
2023/05/14 07:58:47;;;;;;;6.10;2.50;;;;;;;17.72;55.73;97421.01;108833;1250;101268;-76
2023/05/14 08:01:15;;;;;;;2.30;2.10;;;;;;;17.96;55.08;97416.23;108598;1250;100026;-77
2023/05/14 08:03:43;;;;;;;2.20;1.70;;;;;;;18.21;54.93;97415.27;108888;1250;95629;-75
2023/05/14 08:06:11;;;;;;;2.90;1.40;;;;;;;18.52;54.11;97410.94;108987;1250;95720;-75
2023/05/14 08:08:39;;;;;;;2.00;1.80;;;;;;;18.84;53.46;97405.06;108952;1250;103280;-75
2023/05/14 08:11:07;;;;;;;2.30;1.60;;;;;;;19.13;52.70;97399.30;108849;1250;101457;-75
2023/05/14 08:13:35;;;;;;;4.10;1.40;;;;;;;19.33;51.37;97393.77;108508;1251;99627;-77
2023/05/14 08:16:04;;;;;;;3.30;2.20;;;;;;;19.43;50.95;97395.67;108747;1251;95508;-76
2023/05/14 08:18:32;;;;;;;1.80;1.50;;;;;;;19.69;50.86;97396.05;108676;1250;95735;-75
2023/05/14 08:21:00;;;;;;;2.20;1.70;;;;;;;19.97;50.45;97391.52;108729;1251;103292;-75
2023/05/14 08:23:28;;;;;;;2.10;1.70;;;;;;;20.18;49.73;97394.34;108783;1251;101347;-75
2023/05/14 08:25:56;;;;;;;2.00;1.80;;;;;;;20.36;48.96;97390.53;108772;1250;99714;-75
2023/05/14 08:28:24;;;;;;;3.70;1.80;;;;;;;20.50;48.29;97383.02;108479;1250;95740;-75
2023/05/14 08:30:52;;;;;;;2.10;1.60;;;;;;;20.70;47.98;97379.59;108787;1250;95817;-75
2023/05/14 08:33:20;;;;;;;1.70;1.10;;;;;;;20.95;47.50;97379.11;108798;1250;103489;-75
2023/05/14 08:35:51;;;;;;;3.50;1.50;;;;;;;21.15;47.00;97377.63;108920;1250;101412;-80
2023/05/14 08:38:20;;;;;;;2.70;1.40;;;;;;;21.32;46.72;97377.32;108471;1250;99999;-75
2023/05/14 08:40:57;;;;;;;3.70;1.50;;;;;;;21.54;46.06;97377.10;108769;1251;95852;-75
2023/05/14 08:43:43;;;;;;;3.30;1.40;;;;;;;21.75;45.25;97377.98;108548;1251;96224;-75
2023/05/14 08:46:15;;;;;;;2.40;1.30;;;;;;;21.90;44.57;97376.41;108769;1251;103733;-72
2023/05/14 08:48:48;;;;;;;1.50;1.40;;;;;;;22.12;44.21;97376.84;108816;1251;99997;-73
2023/05/14 08:51:16;;;;;;;1.60;1.40;;;;;;;22.34;43.42;97372.33;108795;1251;99736;-73
2023/05/14 08:53:44;;;;;;;2.70;1.20;;;;;;;22.56;43.52;97369.66;108832;1251;95777;-73
2023/05/14 08:56:14;;;;;;;1.80;1.40;;;;;;;22.79;43.09;97363.45;108780;1251;95786;-74
2023/05/14 08:58:42;;;;;;;2.10;1.30;;;;;;;22.92;42.36;97356.34;108686;1251;103378;-73
2023/05/14 09:01:10;;;;;;;3.50;1.50;;;;;;;22.99;41.91;97352.79;108715;1250;262918;-73
2023/05/14 09:03:39;;;;;;;2.00;1.40;;;;;;;23.04;41.55;97351.48;108768;1251;99146;-72
2023/05/14 09:06:08;;;;;;;1.60;1.30;;;;;;;23.06;40.60;97351.57;108716;1253;95820;-73
2023/05/14 09:08:37;;;;;;;1.60;1.30;;;;;;;22.92;40.02;97347.05;108777;1251;95617;-73
2023/05/14 09:11:05;;;;;;;1.90;1.20;;;;;;;22.82;40.53;97339.61;108923;1251;102549;-76
2023/05/14 09:13:36;;;;;;;1.60;1.50;;;;;;;22.82;40.45;97339.44;108779;1251;100474;-77
2023/05/14 09:16:05;;;;;;;2.30;1.50;;;;;;;22.93;40.30;97333.04;108773;1252;100385;-72
2023/05/14 09:18:36;;;;;;;2.70;1.20;;;;;;;23.07;39.98;97330.34;108473;1260;96018;-76
2023/05/14 09:21:04;;;;;;;2.00;1.40;;;;;;;23.14;39.97;97329.17;108898;1250;96528;-74
2023/05/14 09:23:33;;;;;;;2.20;1.40;;;;;;;23.27;39.88;97328.45;108925;1251;103465;-75
2023/05/14 09:26:05;;;;;;;1.60;1.50;;;;;;;23.42;40.01;97328.42;108764;1251;100990;-74
2023/05/14 09:28:33;;;;;;;2.10;1.80;;;;;;;23.60;40.17;97328.44;108860;1251;99749;-73
2023/05/14 09:31:02;;;;;;;2.20;1.30;;;;;;;23.79;39.29;97325.58;108881;1251;95597;-76
2023/05/14 09:33:31;;;;;;;1.50;1.40;;;;;;;23.92;39.04;97320.91;108856;1251;95731;-73
2023/05/14 09:36:00;;;;;;;1.50;1.20;;;;;;;24.01;38.79;97324.13;108903;1251;103248;-73
2023/05/14 09:38:32;;;;;;;1.90;1.30;;;;;;;24.13;38.15;97328.52;108837;1253;101297;-73
2023/05/14 09:41:01;;;;;;;3.30;1.60;;;;;;;24.06;37.78;97330.61;108856;1250;99506;-74
2023/05/14 09:43:29;;;;;;;3.80;1.40;;;;;;;23.96;37.40;97328.06;108850;1251;95832;-74
2023/05/14 09:45:57;;;;;;;2.00;1.60;;;;;;;23.93;37.44;97326.45;108806;1250;95782;-74
2023/05/14 09:48:26;;;;;;;2.20;2.00;;;;;;;23.88;37.21;97322.96;108818;1250;102283;-76
2023/05/14 09:50:54;;;;;;;4.10;1.60;;;;;;;23.86;37.68;97316.38;108820;1250;101467;-73
2023/05/14 09:53:22;;;;;;;2.20;1.50;;;;;;;23.92;37.55;97312.73;108840;1251;99890;-75
2023/05/14 09:55:50;;;;;;;1.50;1.40;;;;;;;23.99;37.60;97313.36;108869;1250;95594;-73
2023/05/14 09:58:18;;;;;;;2.90;1.70;;;;;;;24.07;37.51;97315.55;108924;1251;95925;-75
2023/05/14 10:00:47;;;;;;;3.90;1.70;;;;;;;24.11;37.03;97312.30;108525;1251;103530;-76
2023/05/14 10:03:16;;;;;;;1.60;1.40;;;;;;;24.06;37.43;97309.53;108837;1251;101725;-78
2023/05/14 10:05:44;;;;;;;1.90;1.60;;;;;;;24.12;37.90;97305.99;108571;1251;99616;-75
2023/05/14 10:08:36;;;;;;;5.90;1.70;;;;;;;24.16;37.19;97303.16;108740;1255;96118;-75
2023/05/14 10:11:12;;;;;;;2.60;1.70;;;;;;;24.17;36.91;97301.10;108097;1260;95947;-74
2023/05/14 10:13:42;;;;;;;4.20;1.80;;;;;;;24.21;36.79;97300.27;108129;1257;103550;-74
2023/05/14 10:16:16;;;;;;;2.30;1.80;;;;;;;24.19;36.77;97295.48;108248;1258;101380;-73
2023/05/14 10:18:47;;;;;;;2.20;1.70;;;;;;;24.17;36.80;97289.23;108212;1259;97466;-75
2023/05/14 10:21:19;;;;;;;1.90;1.70;;;;;;;24.29;36.91;97273.05;108201;1257;95614;-76
2023/05/14 10:23:49;;;;;;;5.50;1.80;;;;;;;24.42;36.76;97262.41;108202;1259;95842;-74
2023/05/14 10:26:17;;;;;;;1.40;1.30;;;;;;;24.53;36.13;97261.41;108227;1259;103528;-73
2023/05/14 10:28:46;;;;;;;1.70;1.60;;;;;;;24.62;35.98;97257.18;108105;1257;101295;-73
2023/05/14 10:31:14;;;;;;;4.40;1.60;;;;;;;24.76;35.94;97250.75;108082;1259;99894;-76
2023/05/14 10:33:49;;;;;;;1.60;1.50;;;;;;;24.88;35.46;97246.67;108100;1260;96124;-73
2023/05/14 10:36:18;;;;;;;2.00;1.60;;;;;;;25.01;35.61;97244.80;108345;1257;95660;-74
2023/05/14 10:38:47;;;;;;;1.50;1.40;;;;;;;25.16;35.85;97246.84;108120;1257;103314;-76
2023/05/14 10:41:16;;;;;;;2.80;1.40;;;;;;;25.23;35.35;97243.30;108300;1260;101074;-73
2023/05/14 10:43:45;;;;;;;2.20;1.50;;;;;;;25.25;34.80;97242.66;108247;1260;99938;-76
2023/05/14 10:46:14;;;;;;;3.60;1.50;;;;;;;25.19;34.34;97238.70;108189;1260;95923;-75
2023/05/14 10:48:44;;;;;;;2.40;1.50;;;;;;;25.12;34.48;97239.80;108619;1251;95718;-72
2023/05/14 10:51:12;;;;;;;1.50;1.30;;;;;;;25.06;34.43;97235.45;108771;1251;103211;-73
2023/05/14 10:53:42;;;;;;;1.40;1.10;;;;;;;24.96;33.95;97234.92;108825;1250;100598;-73
2023/05/14 10:56:13;;;;;;;2.60;1.60;;;;;;;24.79;33.54;97231.66;108765;1255;99955;-73
2023/05/14 10:58:45;;;;;;;2.10;1.30;;;;;;;24.65;33.98;97225.44;108750;1250;95642;-73
2023/05/14 11:01:14;;;;;;;1.60;1.50;;;;;;;24.59;34.55;97222.86;108863;1251;95771;-73
2023/05/14 11:03:45;;;;;;;4.30;1.50;;;;;;;24.48;34.71;97216.66;108896;1250;103548;-73
2023/05/14 11:06:15;;;;;;;2.00;1.30;;;;;;;24.38;34.58;97216.86;108848;1254;101353;-75
2023/05/14 11:08:45;;;;;;;1.30;1.20;;;;;;;24.38;34.58;97219.91;108890;1253;99890;-77
2023/05/14 11:11:13;;;;;;;3.00;1.60;;;;;;;24.37;34.84;97216.88;108786;1251;95779;-74
2023/05/14 11:13:41;;;;;;;1.70;1.50;;;;;;;24.39;34.86;97213.59;108836;1251;95680;-72
2023/05/14 11:16:09;;;;;;;2.10;1.40;;;;;;;24.36;34.41;97209.78;108906;1251;103487;-73
2023/05/14 11:18:40;;;;;;;1.70;1.50;;;;;;;24.29;34.52;97206.04;108958;1251;101348;-73
2023/05/14 11:21:08;;;;;;;2.60;1.50;;;;;;;24.27;34.81;97207.52;108903;1251;100124;-76
2023/05/14 11:23:36;;;;;;;1.70;1.40;;;;;;;24.29;34.73;97207.48;108854;1251;95637;-76
2023/05/14 11:26:04;;;;;;;2.40;1.70;;;;;;;24.21;34.17;97210.59;108834;1251;95859;-73
2023/05/14 11:28:33;;;;;;;2.60;1.50;;;;;;;24.13;34.43;97214.10;108842;1251;103674;-72